Time;durP1;ratioP1;P1;durP2;ratioP2;P2;SDS_P1;SDS_P2;PMS_P1;PMS_P2;Temp;Humidity;BMP_temperature;BMP_pressure;BME280_temperature;BME280_humidity;BME280_pressure;Samples;Min_cycle;Max_cycle;Signal;HPM_P1;HPM_P2
2022/04/13 00:01:08;;;;;;;2.72;1.90;;;;;;;1.21;76.58;101568.28;5050119;28;20574;-81
2022/04/13 00:03:34;;;;;;;3.42;2.20;;;;;;;1.17;76.85;101569.72;5022929;28;20116;-81
2022/04/13 00:06:00;;;;;;;3.10;2.05;;;;;;;1.15;76.81;101564.50;5023707;28;20041;-82
2022/04/13 00:08:44;;;;;;;3.65;2.13;;;;;;;1.17;77.01;101570.53;5036474;28;20048;-81
2022/04/13 00:11:28;;;;;;;3.33;2.17;;;;;;;1.17;77.29;101557.03;5034390;28;20094;-83
2022/04/13 00:14:12;;;;;;;2.45;1.63;;;;;;;1.13;76.83;101571.13;5043891;28;20471;-83
2022/04/13 00:16:57;;;;;;;3.10;1.90;;;;;;;1.12;77.01;101572.16;5023573;28;22015;-83
2022/04/13 00:19:41;;;;;;;3.30;1.98;;;;;;;1.13;77.32;101566.56;5011108;28;20037;-83
2022/04/13 00:22:07;;;;;;;3.10;1.90;;;;;;;1.14;77.08;101567.41;5048210;28;20044;-83
2022/04/13 00:24:32;;;;;;;4.60;1.98;;;;;;;1.16;77.57;101570.75;5029137;28;20038;-83
2022/04/13 00:27:16;;;;;;;4.45;2.00;;;;;;;1.15;77.37;101572.59;5027705;28;20460;-84
2022/04/13 00:30:00;;;;;;;3.58;1.95;;;;;;;1.14;77.27;101580.91;5017956;28;20052;-83
2022/04/13 00:32:45;;;;;;;3.55;2.20;;;;;;;1.12;77.42;101574.88;5011381;28;20469;-83
2022/04/13 00:35:10;;;;;;;3.00;2.03;;;;;;;1.04;77.35;101572.31;5013713;28;20168;-83
2022/04/13 00:37:38;;;;;;;2.40;1.95;;;;;;;1.03;77.84;101584.13;5054036;28;20042;-83
2022/04/13 00:40:04;;;;;;;3.45;2.10;;;;;;;1.02;77.73;101577.06;5026524;28;20037;-82
2022/04/13 00:42:48;;;;;;;2.97;1.90;;;;;;;0.94;77.96;101586.16;5026897;28;20099;-82
2022/04/13 00:45:33;;;;;;;1.77;1.67;;;;;;;0.89;78.31;101586.75;5019973;28;20047;-82
2022/04/13 00:48:32;;;;;;;3.17;2.28;;;;;;;0.88;78.00;101579.69;5033496;28;20427;-82
2022/04/13 00:51:16;;;;;;;3.50;1.90;;;;;;;0.90;78.00;101585.72;5042643;28;20045;-83
2022/04/13 00:54:01;;;;;;;3.35;1.70;;;;;;;0.89;78.46;101583.22;5015777;28;20092;-83
2022/04/13 00:56:29;;;;;;;2.42;1.70;;;;;;;0.89;78.88;101581.34;5048127;28;20657;-83
2022/04/13 00:59:15;;;;;;;2.40;1.70;;;;;;;0.84;78.81;101572.97;5016832;28;20038;-83
2022/04/13 01:01:59;;;;;;;1.88;1.77;;;;;;;0.82;79.13;101579.59;5025507;28;20065;-83
2022/04/13 01:04:45;;;;;;;2.22;1.98;;;;;;;0.82;78.97;101583.13;5047572;28;20087;-83
2022/04/13 01:07:30;;;;;;;3.55;2.10;;;;;;;0.85;78.91;101580.03;5049533;28;20172;-83
2022/04/13 01:10:14;;;;;;;2.33;1.90;;;;;;;0.82;79.01;101575.03;5019530;28;20065;-83
2022/04/13 01:12:58;;;;;;;2.33;2.05;;;;;;;0.84;79.32;101577.53;5033372;28;20048;-83
2022/04/13 01:15:24;;;;;;;3.47;2.40;;;;;;;0.80;79.06;101571.69;5028559;28;20033;-83
2022/04/13 01:17:49;;;;;;;4.13;2.38;;;;;;;0.75;79.46;101574.16;5021506;28;20135;-83
2022/04/13 01:20:35;;;;;;;2.78;2.28;;;;;;;0.73;79.22;101570.81;5033270;28;20450;-84
2022/04/13 01:23:23;;;;;;;3.92;2.30;;;;;;;0.73;79.67;101572.69;5022034;28;20052;-83
2022/04/13 01:26:10;;;;;;;3.03;2.10;;;;;;;0.72;79.61;101574.53;5032672;28;20123;-83
2022/04/13 01:28:54;;;;;;;3.40;2.33;;;;;;;0.67;79.86;101576.13;5022023;28;20094;-83
2022/04/13 01:31:39;;;;;;;4.80;2.28;;;;;;;0.65;79.71;101573.63;5043657;28;20060;-83
2022/04/13 01:34:05;;;;;;;3.03;2.40;;;;;;;0.60;79.96;101571.50;5029505;28;20152;-82
2022/04/13 01:36:35;;;;;;;5.18;3.05;;;;;;;0.60;80.18;101567.97;5028063;28;20404;-83
2022/04/13 01:39:02;;;;;;;3.85;2.42;;;;;;;0.60;80.52;101565.28;5024121;28;20500;-83
2022/04/13 01:41:48;;;;;;;4.25;2.83;;;;;;;0.61;80.52;101575.03;5028880;28;20187;-83
2022/04/13 01:44:33;;;;;;;3.45;2.78;;;;;;;0.59;80.53;101574.41;5014381;28;20118;-83
2022/04/13 01:47:17;;;;;;;4.13;2.90;;;;;;;0.58;80.45;101570.03;5030579;28;20144;-83
2022/04/13 01:50:01;;;;;;;6.18;3.42;;;;;;;0.62;80.69;101575.88;5019731;28;20087;-83
2022/04/13 01:52:46;;;;;;;5.35;3.42;;;;;;;0.57;80.90;101571.06;5026673;28;20092;-83
2022/04/13 01:55:12;;;;;;;5.93;3.70;;;;;;;0.59;80.87;101582.50;5028457;28;20121;-83
2022/04/13 01:57:38;;;;;;;5.57;3.08;;;;;;;0.60;80.71;101576.06;5036252;28;20120;-83
2022/04/13 02:00:22;;;;;;;6.25;3.85;;;;;;;0.60;80.87;101571.50;5026373;28;20138;-83
2022/04/13 02:03:07;;;;;;;5.68;3.85;;;;;;;0.63;80.98;101580.25;5016684;28;20044;-82
2022/04/13 02:05:52;;;;;;;9.50;4.35;;;;;;;0.63;80.93;101581.09;5025389;28;20075;-82
2022/04/13 02:08:37;;;;;;;6.85;3.85;;;;;;;0.56;80.89;101580.19;5025392;28;20176;-82
2022/04/13 02:11:03;;;;;;;4.70;3.60;;;;;;;0.54;81.31;101580.41;5022974;28;20042;-82
2022/04/13 02:13:29;;;;;;;5.13;3.72;;;;;;;0.56;81.05;101585.59;5048703;28;20087;-83
2022/04/13 02:15:54;;;;;;;5.25;3.78;;;;;;;0.52;81.04;101573.47;5031252;28;20041;-83
2022/04/13 02:18:40;;;;;;;3.90;3.28;;;;;;;0.51;81.16;101577.22;5026668;28;20121;-82
2022/04/13 02:21:24;;;;;;;4.03;3.40;;;;;;;0.50;81.03;101579.09;5017461;28;20049;-82
2022/04/13 02:24:09;;;;;;;3.88;3.20;;;;;;;0.45;81.68;101578.84;5012770;28;20111;-82
2022/04/13 02:26:53;;;;;;;3.25;2.83;;;;;;;0.41;81.55;101579.41;5027333;28;20115;-82
2022/04/13 02:29:37;;;;;;;4.07;3.40;;;;;;;0.39;81.33;101586.88;5024076;28;20087;-82
2022/04/13 02:32:04;;;;;;;3.78;2.88;;;;;;;0.41;81.68;101582.94;5023181;28;20037;-82
2022/04/13 02:34:29;;;;;;;4.30;3.70;;;;;;;0.44;81.82;101582.56;5016844;28;20420;-82
2022/04/13 02:36:56;;;;;;;5.13;3.92;;;;;;;0.46;82.14;101588.59;5016920;28;20045;-82
2022/04/13 02:39:40;;;;;;;3.92;3.50;;;;;;;0.53;82.09;101583.28;5043898;28;20090;-82
2022/04/13 02:42:31;;;;;;;4.90;4.10;;;;;;;0.51;82.24;101591.56;5016110;28;20133;-82
2022/04/13 02:45:15;;;;;;;4.97;4.20;;;;;;;0.55;81.90;101594.72;5019731;28;20057;-82
2022/04/13 02:47:59;;;;;;;5.00;4.13;;;;;;;0.49;82.26;101584.69;5046313;28;20431;-81
2022/04/13 02:50:44;;;;;;;5.40;4.07;;;;;;;0.47;81.89;101594.84;5040557;28;20126;-82
2022/04/13 02:53:28;;;;;;;6.40;3.92;;;;;;;0.49;81.85;101603.56;5025571;28;20052;-82
2022/04/13 02:55:54;;;;;;;4.35;3.85;;;;;;;0.48;82.05;101607.31;5027807;28;20033;-81
2022/04/13 02:58:20;;;;;;;6.68;5.13;;;;;;;0.46;81.67;101607.50;5028486;28;20072;-81
2022/04/13 03:00:47;;;;;;;10.18;6.45;;;;;;;0.53;82.05;101608.44;5024885;28;20034;-81
2022/04/13 03:03:32;;;;;;;6.50;5.25;;;;;;;0.53;81.91;101603.03;5031182;28;20484;-81
2022/04/13 03:06:16;;;;;;;5.88;5.13;;;;;;;0.54;81.87;101601.16;5028912;28;20044;-81
2022/04/13 03:09:01;;;;;;;7.85;5.15;;;;;;;0.54;82.14;101601.16;5034781;28;20052;-82
2022/04/13 03:11:46;;;;;;;8.38;5.22;;;;;;;0.57;82.57;101608.88;5019266;28;20040;-82
2022/04/13 03:14:23;;;;;;;5.85;4.60;;;;;;;0.58;82.24;101607.84;5029723;28;20041;-82
2022/04/13 03:16:49;;;;;;;6.37;4.83;;;;;;;0.60;82.09;101620.13;5025966;28;20554;-82
2022/04/13 03:19:14;;;;;;;8.30;5.55;;;;;;;0.62;82.20;101611.81;5021816;28;20395;-82
2022/04/13 03:21:59;;;;;;;10.27;7.03;;;;;;;0.65;82.43;101616.84;5021688;28;20048;-81
2022/04/13 03:24:43;;;;;;;12.85;7.88;;;;;;;0.69;82.25;101618.13;5019279;28;20060;-82
2022/04/13 03:27:28;;;;;;;15.20;10.35;;;;;;;0.84;82.02;101626.16;5031319;28;20057;-83
2022/04/13 03:30:16;;;;;;;18.38;11.93;;;;;;;0.96;81.68;101630.03;5014902;28;20148;-82
2022/04/13 03:33:00;;;;;;;13.73;9.23;;;;;;;1.04;81.86;101639.88;5025197;28;20056;-81
2022/04/13 03:35:26;;;;;;;10.70;7.70;;;;;;;1.16;82.47;101631.03;5018200;28;20617;-82
2022/04/13 03:37:52;;;;;;;7.65;5.78;;;;;;;1.33;81.64;101631.59;5019930;28;20037;-82
2022/04/13 03:40:17;;;;;;;5.78;4.28;;;;;;;1.40;81.13;101637.91;5028732;28;20057;-82
2022/04/13 03:43:02;;;;;;;6.20;4.60;;;;;;;1.45;81.76;101634.63;5015262;28;20176;-83
2022/04/13 03:45:46;;;;;;;4.63;4.15;;;;;;;1.46;81.44;101628.16;5016131;28;20044;-81
2022/04/13 03:48:30;;;;;;;4.00;3.60;;;;;;;1.50;81.00;101638.38;5024056;28;20129;-81
2022/04/13 03:51:15;;;;;;;4.18;3.47;;;;;;;1.50;80.57;101641.09;5024605;28;20102;-81
2022/04/13 03:57:52;;;;;;;5.75;3.90;;;;;;;1.54;80.26;101640.69;5028608;28;20104;-81
2022/04/13 04:00:18;;;;;;;4.68;3.85;;;;;;;1.57;80.33;101643.03;5027133;28;20037;-81
2022/04/13 04:02:44;;;;;;;5.55;4.20;;;;;;;1.58;80.62;101644.69;5017649;28;20116;-80
2022/04/13 04:05:11;;;;;;;9.05;4.35;;;;;;;1.58;80.71;101634.72;5013470;28;20563;-81
2022/04/13 04:07:55;;;;;;;7.00;4.20;;;;;;;1.55;80.12;101626.13;5015570;28;20107;-81
2022/04/13 04:10:39;;;;;;;10.63;4.68;;;;;;;1.57;80.66;101637.63;5023904;28;20060;-81
2022/04/13 04:13:24;;;;;;;8.18;5.00;;;;;;;1.60;80.25;101642.63;5024535;28;20056;-80
2022/04/13 04:16:08;;;;;;;10.60;4.95;;;;;;;1.61;80.74;101641.59;5026406;28;20098;-81
2022/04/13 04:18:34;;;;;;;9.73;4.95;;;;;;;1.53;80.77;101642.56;5016826;28;20038;-82
2022/04/13 04:21:00;;;;;;;11.18;4.50;;;;;;;1.50;80.50;101641.09;5013937;28;20184;-82
2022/04/13 04:23:44;;;;;;;12.13;4.45;;;;;;;1.51;80.43;101645.47;5028560;28;20527;-82
2022/04/13 04:26:28;;;;;;;10.20;4.15;;;;;;;1.49;81.21;101647.53;5029779;28;20060;-83
2022/04/13 04:29:13;;;;;;;9.20;3.95;;;;;;;1.51;81.17;101653.59;5036388;28;20099;-82
2022/04/13 04:31:59;;;;;;;11.05;4.13;;;;;;;1.59;81.16;101657.19;5025308;28;20052;-82
2022/04/13 04:34:43;;;;;;;8.93;4.00;;;;;;;1.61;81.14;101655.13;5030798;28;20099;-82
2022/04/13 04:37:28;;;;;;;14.98;4.25;;;;;;;1.67;81.23;101657.84;5056407;28;20052;-82
2022/04/13 04:39:53;;;;;;;14.50;3.65;;;;;;;1.77;81.02;101660.22;5038801;28;20042;-82
2022/04/13 04:42:19;;;;;;;9.15;3.88;;;;;;;1.86;81.27;101658.19;5043874;28;20669;-82
2022/04/13 04:45:04;;;;;;;9.02;3.53;;;;;;;1.95;80.84;101657.84;5013022;28;20526;-82
2022/04/13 04:47:49;;;;;;;9.25;4.18;;;;;;;2.03;80.93;101657.66;5022177;28;20099;-81
2022/04/13 04:50:34;;;;;;;10.38;4.55;;;;;;;2.11;80.73;101665.63;5025975;28;20558;-82
2022/04/13 04:53:18;;;;;;;9.80;3.95;;;;;;;2.20;80.14;101665.47;5023552;28;20091;-82
2022/04/13 04:56:02;;;;;;;14.15;4.43;;;;;;;2.29;79.92;101667.81;5015973;28;20522;-82
2022/04/13 04:58:47;;;;;;;10.90;4.97;;;;;;;2.37;79.70;101666.78;5018899;28;20043;-82
2022/04/13 05:01:12;;;;;;;8.52;3.75;;;;;;;2.42;79.35;101669.72;5020889;28;20468;-81
2022/04/13 05:03:38;;;;;;;12.40;3.97;;;;;;;2.50;79.46;101672.25;5011225;28;20126;-81
2022/04/13 05:06:04;;;;;;;9.32;3.95;;;;;;;2.64;79.30;101665.03;5027375;28;20049;-81
2022/04/13 05:08:49;;;;;;;9.00;3.85;;;;;;;2.82;79.07;101669.88;5029222;28;20648;-81
2022/04/13 05:11:34;;;;;;;9.68;3.97;;;;;;;3.05;78.12;101669.50;5040407;28;20085;-82
2022/04/13 05:14:20;;;;;;;10.20;4.07;;;;;;;3.17;77.61;101676.81;5050675;28;20140;-82
2022/04/13 05:17:05;;;;;;;8.82;3.55;;;;;;;3.30;77.04;101682.25;5028503;28;20431;-82
2022/04/13 05:19:49;;;;;;;11.85;4.97;;;;;;;3.38;76.53;101680.38;5012260;28;20520;-82
2022/04/13 05:22:34;;;;;;;11.18;4.43;;;;;;;3.55;75.83;101681.63;5027933;28;20531;-82
2022/04/13 05:25:07;;;;;;;10.32;4.95;;;;;;;3.68;75.45;101684.34;5026275;28;20045;-82
2022/04/13 05:27:33;;;;;;;8.15;4.60;;;;;;;3.78;74.95;101684.72;5015178;28;20103;-82
2022/04/13 05:30:17;;;;;;;11.68;4.78;;;;;;;3.92;74.66;101690.97;5016471;28;20049;-80
2022/04/13 05:33:02;;;;;;;11.60;5.00;;;;;;;4.09;74.00;101689.47;5031804;28;20068;-81
2022/04/13 05:35:46;;;;;;;11.73;5.20;;;;;;;4.31;73.65;101692.75;5037314;28;20048;-82
2022/04/13 05:38:31;;;;;;;11.27;5.13;;;;;;;4.51;72.74;101692.69;5026332;28;20057;-82
2022/04/13 05:41:15;;;;;;;10.55;4.97;;;;;;;4.62;72.19;101689.31;5024346;28;20188;-82
2022/04/13 05:43:41;;;;;;;12.82;4.45;;;;;;;4.70;72.27;101689.06;5021986;28;20526;-83
2022/04/13 05:46:06;;;;;;;8.82;4.47;;;;;;;4.91;71.30;101690.63;5032966;28;20611;-83
2022/04/13 05:48:51;;;;;;;10.43;4.28;;;;;;;5.09;70.30;101685.28;5058742;28;20066;-82
2022/04/13 05:51:35;;;;;;;10.70;5.00;;;;;;;5.22;69.84;101676.19;5023152;28;20044;-82
2022/04/13 05:54:19;;;;;;;13.07;4.97;;;;;;;5.35;69.29;101678.81;5042083;28;20044;-80
2022/04/13 05:57:04;;;;;;;9.73;4.75;;;;;;;5.50;68.15;101685.81;5050057;28;20052;-82
2022/04/13 05:59:49;;;;;;;10.82;5.22;;;;;;;5.60;68.23;101681.56;5031034;28;20143;-81
2022/04/13 06:02:35;;;;;;;10.13;4.75;;;;;;;5.88;67.61;101678.34;5033495;28;20530;-82
2022/04/13 06:05:21;;;;;;;11.63;5.15;;;;;;;6.33;67.07;101689.84;5032362;28;20458;-83
2022/04/13 06:07:47;;;;;;;9.05;4.53;;;;;;;6.51;65.52;101690.91;5032882;28;20041;-83
2022/04/13 06:10:12;;;;;;;9.05;4.85;;;;;;;6.68;65.38;101694.66;5033774;28;20563;-83
2022/04/13 06:12:56;;;;;;;12.07;5.68;;;;;;;6.85;64.77;101695.69;5028662;28;20645;-83
2022/04/13 06:15:42;;;;;;;13.13;5.57;;;;;;;6.94;63.53;101694.31;5013702;28;20084;-87
2022/04/13 06:18:27;;;;;;;11.27;5.30;;;;;;;6.99;63.37;101695.53;5013759;28;20053;-84
2022/04/13 06:21:11;;;;;;;10.27;5.65;;;;;;;7.06;62.84;101702.53;5013513;28;20053;-82
2022/04/13 06:23:55;;;;;;;9.80;5.85;;;;;;;7.53;62.68;101692.56;5013427;28;20060;-83
2022/04/13 06:26:39;;;;;;;12.70;6.53;;;;;;;8.18;61.63;101699.84;5013299;28;20057;-83
2022/04/13 06:29:05;;;;;;;11.52;6.53;;;;;;;8.79;60.36;101705.81;5029791;28;20408;-82
2022/04/13 06:31:35;;;;;;;12.52;5.47;;;;;;;9.39;58.52;101711.63;5032068;28;20099;-83
2022/04/13 06:34:01;;;;;;;9.90;5.30;;;;;;;10.07;56.35;101704.22;5032046;28;20041;-81
2022/04/13 06:36:46;;;;;;;10.48;5.45;;;;;;;10.87;54.65;101706.38;5032121;28;20072;-81
2022/04/13 06:39:30;;;;;;;8.68;5.30;;;;;;;11.62;52.10;101708.22;5031875;28;20210;-81
2022/04/13 06:42:14;;;;;;;10.18;5.55;;;;;;;12.21;50.21;101699.09;5030175;28;20179;-80
2022/04/13 06:45:00;;;;;;;19.88;6.65;;;;;;;12.72;48.80;101700.16;5032932;28;20119;-80
2022/04/13 06:47:25;;;;;;;12.48;6.35;;;;;;;13.11;47.94;101708.81;5032991;28;20056;-81
2022/04/13 06:49:51;;;;;;;12.85;6.40;;;;;;;13.45;46.74;101709.19;5031426;28;20037;-81
2022/04/13 06:52:16;;;;;;;15.27;6.70;;;;;;;13.70;46.12;101718.56;5013405;28;20106;-80
2022/04/13 06:55:02;;;;;;;9.80;6.00;;;;;;;14.06;45.03;101709.19;5006099;28;20088;-81
2022/04/13 06:57:46;;;;;;;11.65;6.18;;;;;;;14.37;44.34;101706.31;5032593;28;20127;-80
2022/04/13 07:00:13;;;;;;;13.85;7.07;;;;;;;14.66;43.63;101712.06;5033092;28;20136;-80
2022/04/13 07:02:39;;;;;;;15.50;6.60;;;;;;;14.87;42.57;101705.34;5032485;28;20537;-81
2022/04/13 07:05:24;;;;;;;13.52;6.50;;;;;;;15.15;42.19;101700.22;5032572;28;20164;-81
2022/04/13 07:08:08;;;;;;;14.73;6.72;;;;;;;15.34;41.46;101710.31;5032122;28;20542;-80
2022/04/13 07:10:53;;;;;;;14.40;6.60;;;;;;;15.46;41.00;101701.66;5031176;28;20096;-80
2022/04/13 07:13:37;;;;;;;11.50;5.97;;;;;;;15.84;40.31;101705.53;5032377;28;20108;-81
2022/04/13 07:16:22;;;;;;;10.30;5.57;;;;;;;16.17;39.79;101703.84;5032249;28;20137;-81
2022/04/13 07:19:06;;;;;;;15.07;6.53;;;;;;;16.45;39.32;101707.66;5032098;28;20610;-81
2022/04/13 07:21:51;;;;;;;10.68;6.50;;;;;;;16.61;38.91;101701.94;5031841;28;20436;-80
2022/04/13 07:24:16;;;;;;;13.10;6.30;;;;;;;16.71;38.60;101702.69;5031974;28;20515;-80
2022/04/13 07:26:42;;;;;;;13.20;5.75;;;;;;;16.92;38.47;101700.47;5031860;28;20077;-79
2022/04/13 07:29:26;;;;;;;12.10;5.22;;;;;;;17.22;37.44;101702.00;5032218;28;20052;-81
2022/04/13 07:32:11;;;;;;;12.05;5.85;;;;;;;17.55;36.73;101705.66;5031405;28;20135;-79
2022/04/13 07:34:58;;;;;;;19.55;4.85;;;;;;;17.81;36.28;101703.28;5028903;28;20052;-82
2022/04/13 07:37:46;;;;;;;12.40;5.22;;;;;;;18.11;35.84;101710.25;5032097;28;20055;-81
2022/04/13 07:40:30;;;;;;;13.63;4.60;;;;;;;18.26;35.25;101709.16;5031802;28;20055;-81
2022/04/13 07:42:56;;;;;;;13.80;5.05;;;;;;;18.43;34.74;101708.56;5031319;28;20045;-84
2022/04/13 07:45:21;;;;;;;9.02;4.72;;;;;;;18.60;34.55;101706.81;5031699;28;20124;-82
2022/04/13 07:47:47;;;;;;;10.55;4.60;;;;;;;18.74;34.07;101712.38;5031546;28;20135;-83
2022/04/13 07:50:31;;;;;;;8.23;4.15;;;;;;;18.93;33.88;101701.16;5045101;28;20126;-81
2022/04/13 07:53:16;;;;;;;8.77;4.38;;;;;;;19.27;33.67;101709.00;5031293;28;20055;-80
2022/04/13 07:56:00;;;;;;;13.73;4.28;;;;;;;19.74;32.79;101709.56;5030347;28;20467;-80
2022/04/13 07:58:44;;;;;;;10.35;4.15;;;;;;;20.16;32.28;101709.00;5016491;28;20518;-81
2022/04/13 08:01:29;;;;;;;11.27;3.50;;;;;;;20.54;31.57;101722.50;5030590;28;20040;-78
2022/04/13 08:04:13;;;;;;;8.45;3.17;;;;;;;20.76;30.96;101711.22;5031197;28;20055;-80
2022/04/13 08:06:39;;;;;;;11.88;2.97;;;;;;;20.96;30.42;101722.94;5031442;28;20045;-80
2022/04/13 08:09:04;;;;;;;9.85;2.80;;;;;;;21.17;30.13;101721.16;5030029;28;20543;-81
2022/04/13 08:11:30;;;;;;;5.82;2.90;;;;;;;21.33;29.50;101725.13;5031295;28;20513;-81
2022/04/13 08:14:14;;;;;;;10.25;2.90;;;;;;;21.38;28.93;101723.34;5029673;28;20060;-79
2022/04/13 08:17:03;;;;;;;11.77;3.22;;;;;;;21.71;29.20;101727.28;5012321;28;20085;-80
2022/04/13 08:19:48;;;;;;;13.88;2.75;;;;;;;22.04;28.60;101729.53;5018791;28;20124;-80
2022/04/13 08:22:32;;;;;;;11.80;2.40;;;;;;;22.19;28.05;101731.81;5031211;28;20076;-81
2022/04/13 08:25:16;;;;;;;7.10;2.38;;;;;;;22.24;28.20;101728.88;5031041;28;20114;-80
2022/04/13 08:27:42;;;;;;;6.93;2.35;;;;;;;22.18;27.98;101744.16;5046512;28;20507;-79
2022/04/13 08:30:07;;;;;;;7.00;2.33;;;;;;;21.93;27.37;101735.47;5030823;28;20041;-81
2022/04/13 08:32:33;;;;;;;13.45;2.28;;;;;;;21.72;27.79;101742.09;5029820;28;20128;-81
2022/04/13 08:35:17;;;;;;;10.43;3.33;;;;;;;21.63;28.35;101728.94;5030882;28;20171;-81
2022/04/13 08:38:02;;;;;;;3.50;2.10;;;;;;;21.62;28.26;101741.25;5030660;28;20088;-81
2022/04/13 08:40:57;;;;;;;4.35;2.03;;;;;;;21.53;28.63;101742.44;5030818;28;20480;-81
2022/04/13 08:44:18;;;;;;;4.25;2.38;;;;;;;21.32;27.66;101748.63;5029459;28;20137;-81
2022/04/13 08:46:45;;;;;;;3.97;1.60;;;;;;;21.18;28.74;101747.94;5008261;28;20053;-80
2022/04/13 08:49:13;;;;;;;6.05;1.90;;;;;;;21.27;28.51;101746.00;5029411;28;20041;-81
2022/04/13 08:51:39;;;;;;;9.02;2.10;;;;;;;21.41;27.91;101745.03;5029100;28;20044;-79
2022/04/13 08:54:30;;;;;;;6.65;1.70;;;;;;;21.42;27.60;101746.69;5029457;28;20134;-79
2022/04/13 08:57:14;;;;;;;5.72;1.75;;;;;;;21.15;27.78;101742.16;5030457;28;20451;-81
2022/04/13 09:00:14;;;;;;;9.20;3.58;;;;;;;21.21;28.12;101754.84;5024040;28;20056;-82
2022/04/13 09:03:24;;;;;;;4.93;2.00;;;;;;;21.36;27.44;101746.03;5011201;28;20088;-83
2022/04/13 09:06:10;;;;;;;3.60;1.85;;;;;;;21.48;27.11;101746.19;5017083;28;20052;-81
2022/04/13 09:08:57;;;;;;;8.70;2.25;;;;;;;21.25;27.37;101753.88;5041329;28;20044;-82
2022/04/13 09:11:23;;;;;;;6.03;1.60;;;;;;;20.90;27.93;101749.34;5036937;28;20569;-81
2022/04/13 09:13:49;;;;;;;4.53;1.55;;;;;;;20.73;27.92;101752.91;5033318;28;20041;-82
2022/04/13 09:16:15;;;;;;;4.70;2.25;;;;;;;20.87;27.47;101759.19;5033221;28;20080;-82
2022/04/13 09:19:02;;;;;;;7.63;2.03;;;;;;;20.34;28.58;101751.72;5032605;28;20127;-82
2022/04/13 09:21:47;;;;;;;4.28;2.00;;;;;;;19.41;28.50;101761.81;5013561;28;20225;-82
2022/04/13 09:24:14;;;;;;;3.28;1.83;;;;;;;18.37;29.63;101758.66;5018042;28;20183;-82
2022/04/13 09:26:40;;;;;;;3.55;1.40;;;;;;;17.15;30.30;101755.03;5032937;28;20046;-82
2022/04/13 09:29:06;;;;;;;5.50;1.20;;;;;;;16.28;31.37;101765.47;5033050;28;20046;-82
2022/04/13 09:31:50;;;;;;;2.72;1.40;;;;;;;15.30;32.66;101756.25;5034336;28;20129;-81
2022/04/13 09:34:34;;;;;;;4.95;1.23;;;;;;;14.34;34.22;101759.34;5033001;28;20044;-79
2022/04/13 09:37:19;;;;;;;3.03;1.25;;;;;;;13.71;35.23;101767.97;5031260;28;20053;-80
2022/04/13 09:40:04;;;;;;;4.63;1.20;;;;;;;13.11;36.01;101765.84;5014064;28;20080;-81
2022/04/13 09:42:48;;;;;;;7.63;1.40;;;;;;;12.56;37.49;101764.50;5013831;28;20037;-82
2022/04/13 09:45:14;;;;;;;6.28;2.25;;;;;;;11.98;37.21;101766.34;5022692;28;20051;-82
2022/04/13 09:47:45;;;;;;;9.13;1.80;;;;;;;11.54;38.68;101771.13;5034012;28;20061;-82
2022/04/13 09:50:23;;;;;;;5.57;0.88;;;;;;;11.16;39.16;101765.50;5033625;28;20463;-82
2022/04/13 09:52:51;;;;;;;2.92;1.30;;;;;;;10.94;39.79;101774.88;5032579;28;20453;-82
2022/04/13 09:55:21;;;;;;;3.00;0.85;;;;;;;10.70;39.71;101775.09;5031990;28;20042;-83
2022/04/13 09:58:16;;;;;;;2.28;0.68;;;;;;;10.57;39.76;101779.03;5018532;28;20083;-83
2022/04/13 10:01:02;;;;;;;1.58;1.00;;;;;;;10.34;40.58;101784.75;5018800;28;20562;-83
2022/04/13 10:03:55;;;;;;;4.00;0.98;;;;;;;10.07;40.99;101781.84;5032677;28;20076;-77
2022/04/13 10:06:39;;;;;;;5.65;1.30;;;;;;;9.87;41.25;101779.56;5033441;28;20095;-74
2022/04/13 10:09:11;;;;;;;5.75;1.17;;;;;;;9.75;41.75;101780.75;5019848;28;20042;-72
2022/04/13 10:11:37;;;;;;;9.43;2.92;;;;;;;9.70;41.07;101778.72;5013488;28;20046;-73
2022/04/13 10:14:05;;;;;;;2.10;0.70;;;;;;;9.67;41.74;101791.00;5012040;28;20037;-73
2022/04/13 10:16:51;;;;;;;4.18;1.08;;;;;;;9.73;42.06;101789.22;5018095;28;20171;-74
2022/04/13 10:19:37;;;;;;;4.13;0.90;;;;;;;9.81;42.12;101785.22;5032848;28;20454;-72
2022/04/13 10:22:21;;;;;;;2.15;1.23;;;;;;;9.93;41.83;101792.31;5033154;28;20539;-72
2022/04/13 10:25:25;;;;;;;6.18;1.00;;;;;;;9.98;41.45;101800.59;5033280;28;20044;-73
2022/04/13 10:27:57;;;;;;;2.60;0.93;;;;;;;9.94;41.17;101796.69;5032451;28;20041;-73
2022/04/13 10:30:37;;;;;;;2.75;1.00;;;;;;;9.86;41.79;101794.34;5027790;28;20050;-73
2022/04/13 10:33:05;;;;;;;4.38;1.00;;;;;;;9.85;42.00;101798.19;5044821;28;20048;-73
2022/04/13 10:35:32;;;;;;;1.40;0.85;;;;;;;9.89;41.98;101787.53;5033716;28;20132;-73
2022/04/13 10:37:58;;;;;;;1.47;0.73;;;;;;;9.90;41.70;101789.22;5037697;28;20045;-73
2022/04/13 10:40:43;;;;;;;4.70;0.60;;;;;;;9.89;41.33;101791.16;5042989;28;20429;-72
2022/04/13 10:43:13;;;;;;;6.88;1.50;;;;;;;9.92;41.11;101787.06;5052103;28;20530;-73
2022/04/13 10:45:40;;;;;;;1.00;0.70;;;;;;;9.84;41.45;101801.16;5016916;28;20050;-73
2022/04/13 10:48:10;;;;;;;2.67;0.77;;;;;;;9.79;42.11;101790.97;5049944;28;20045;-73
2022/04/13 10:50:41;;;;;;;0.73;0.52;;;;;;;9.76;41.72;101793.38;5048843;28;20170;-73
2022/04/13 10:53:14;;;;;;;9.75;0.80;;;;;;;9.69;41.38;101799.00;5032144;28;21649;-73
2022/04/13 10:55:41;;;;;;;1.58;0.93;;;;;;;9.65;41.42;101792.34;5031179;28;20044;-73
2022/04/13 10:58:27;;;;;;;2.42;1.02;;;;;;;9.63;41.68;101794.50;5015804;28;20042;-73
2022/04/13 11:00:57;;;;;;;2.20;1.42;;;;;;;9.57;41.17;101799.06;5044866;28;20038;-73
2022/04/13 11:03:25;;;;;;;0.90;0.90;;;;;;;9.48;40.90;101806.00;5047193;28;20645;-73
2022/04/13 11:05:50;;;;;;;2.63;0.50;;;;;;;9.34;41.24;101797.25;5050350;28;20041;-73
2022/04/13 11:08:25;;;;;;;5.22;1.00;;;;;;;9.27;41.66;101801.22;5039421;28;20151;-73
2022/04/13 11:10:52;;;;;;;2.50;1.08;;;;;;;9.26;42.08;101797.66;5025041;28;20037;-73
2022/04/13 11:13:19;;;;;;;5.55;1.05;;;;;;;9.28;41.92;101798.25;5033346;28;20034;-73
2022/04/13 11:15:47;;;;;;;0.98;0.50;;;;;;;9.28;42.55;101794.66;5039825;28;20535;-73
2022/04/13 11:18:20;;;;;;;2.58;0.90;;;;;;;9.27;41.73;101801.22;5029039;28;20141;-73
2022/04/13 11:20:58;;;;;;;2.38;0.60;;;;;;;9.21;41.69;101800.31;5016864;28;20441;-73
2022/04/13 11:23:24;;;;;;;2.17;1.30;;;;;;;9.18;42.08;101803.50;5030431;28;20044;-73
2022/04/13 11:25:54;;;;;;;1.83;0.65;;;;;;;9.19;41.82;101798.84;5030141;28;20563;-73
2022/04/13 11:28:31;;;;;;;0.77;0.50;;;;;;;9.14;41.55;101802.34;5026563;28;20411;-74
2022/04/13 11:31:08;;;;;;;2.17;0.50;;;;;;;9.10;41.85;101800.34;5029082;28;20040;-72
2022/04/13 11:33:55;;;;;;;3.70;0.60;;;;;;;9.02;41.58;101801.53;5033105;28;20061;-72
2022/04/13 11:36:28;;;;;;;8.98;0.60;;;;;;;8.96;41.76;101802.50;5033919;28;20044;-72
2022/04/13 11:38:54;;;;;;;2.40;0.55;;;;;;;8.90;41.49;101803.47;5024840;28;20522;-72
2022/04/13 11:41:21;;;;;;;2.55;0.70;;;;;;;8.80;41.56;101800.53;5041417;28;20123;-73
2022/04/13 11:43:47;;;;;;;1.40;0.50;;;;;;;8.71;41.99;101806.38;5038086;28;20102;-74
2022/04/13 11:46:41;;;;;;;2.97;0.52;;;;;;;8.65;41.92;101799.09;5033813;28;20052;-73
2022/04/13 11:49:10;;;;;;;3.53;0.80;;;;;;;8.61;41.41;101803.41;5031261;28;20052;-73
2022/04/13 11:51:36;;;;;;;2.33;1.23;;;;;;;8.63;41.96;101806.72;5031616;28;20496;-72
2022/04/13 11:54:12;;;;;;;2.65;0.90;;;;;;;8.66;41.83;101795.28;5034638;28;20044;-73
2022/04/13 11:56:48;;;;;;;2.08;0.73;;;;;;;8.70;42.24;101798.41;5051008;28;20110;-72
2022/04/13 11:59:17;;;;;;;3.13;1.17;;;;;;;8.70;41.98;101804.72;5042485;28;20037;-72
2022/04/13 12:01:53;;;;;;;2.72;1.00;;;;;;;8.74;42.08;101802.31;5017173;28;20120;-72
2022/04/13 12:04:21;;;;;;;1.08;0.63;;;;;;;8.76;42.54;101801.00;5032079;28;20518;-73
2022/04/13 12:06:49;;;;;;;0.68;0.68;;;;;;;8.84;41.56;101807.16;5040463;28;20498;-72
2022/04/13 12:09:15;;;;;;;1.05;0.70;;;;;;;8.86;41.31;101805.88;5020304;28;20050;-71
2022/04/13 12:11:43;;;;;;;1.30;1.02;;;;;;;8.89;41.41;101805.41;5062714;28;20065;-72
2022/04/13 12:14:10;;;;;;;9.88;0.90;;;;;;;8.94;41.67;101807.41;5027966;28;20037;-72
2022/04/13 12:16:38;;;;;;;1.60;0.52;;;;;;;8.89;41.86;101810.03;5027061;28;20041;-71
2022/04/13 12:19:06;;;;;;;4.70;1.27;;;;;;;8.87;41.83;101807.53;5028778;28;20090;-72
2022/04/13 12:21:32;;;;;;;3.20;0.75;;;;;;;8.79;41.84;101805.16;5031085;28;20041;-71